Time;durP1;ratioP1;P1;durP2;ratioP2;P2;SDS_P1;SDS_P2;PMS_P1;PMS_P2;Temp;Humidity;BMP_temperature;BMP_pressure;BME280_temperature;BME280_humidity;BME280_pressure;Samples;Min_cycle;Max_cycle;Signal;HPM_P1;HPM_P2
2022/01/01 00:02:23;;;;;;;14.00;5.20;;;;;;;10.98;90.61;100294.61;102306;1311;22623;-65
2022/01/01 00:04:56;;;;;;;14.70;5.60;;;;;;;10.98;90.86;100298.67;102410;1313;24226;-63
2022/01/01 00:07:28;;;;;;;13.10;5.10;;;;;;;10.98;90.71;100302.03;102810;1313;22689;-67
2022/01/01 00:09:59;;;;;;;15.10;5.20;;;;;;;10.98;91.13;100306.80;102384;1309;24253;-64
2022/01/01 00:12:29;;;;;;;12.90;4.00;;;;;;;10.99;90.85;100308.29;102347;1313;22568;-64
2022/01/01 00:15:00;;;;;;;15.10;4.70;;;;;;;10.98;90.94;100308.29;102302;1313;22574;-64
2022/01/01 00:17:31;;;;;;;15.30;4.90;;;;;;;10.99;90.96;100315.45;102313;1313;22586;-63
2022/01/01 00:20:02;;;;;;;14.70;4.40;;;;;;;10.99;90.99;100318.21;102379;1313;22620;-63
2022/01/01 00:22:34;;;;;;;12.40;4.00;;;;;;;11.01;91.05;100323.81;102349;1313;25230;-64
2022/01/01 00:25:06;;;;;;;13.40;4.20;;;;;;;11.01;91.12;100318.39;102376;1312;22612;-64
2022/01/01 00:27:37;;;;;;;12.10;3.80;;;;;;;11.02;90.94;100321.45;102375;1312;24325;-64
2022/01/01 00:30:10;;;;;;;10.40;3.10;;;;;;;11.02;91.04;100321.76;102355;1312;23138;-64
2022/01/01 00:32:41;;;;;;;9.60;2.70;;;;;;;11.03;91.01;100316.84;102406;1313;22594;-63
2022/01/01 00:35:12;;;;;;;10.20;2.30;;;;;;;11.03;91.07;100320.96;102344;1312;25227;-63
2022/01/01 00:37:43;;;;;;;11.00;3.10;;;;;;;11.05;91.22;100317.30;102553;1313;24228;-63
2022/01/01 00:40:15;;;;;;;9.40;2.50;;;;;;;11.05;90.89;100323.25;102405;1312;22691;-64
2022/01/01 00:42:46;;;;;;;9.30;2.60;;;;;;;11.06;91.12;100321.04;102385;1312;22685;-63
2022/01/01 00:45:18;;;;;;;12.90;3.00;;;;;;;11.06;91.15;100328.30;102431;1312;23019;-64
2022/01/01 00:47:49;;;;;;;11.20;3.20;;;;;;;11.07;90.94;100328.92;102406;1313;24319;-64
2022/01/01 00:50:20;;;;;;;10.00;2.80;;;;;;;11.07;91.06;100333.39;102410;1312;25211;-64
2022/01/01 00:52:52;;;;;;;8.40;2.00;;;;;;;11.07;91.09;100345.98;102504;1313;25461;-64
2022/01/01 00:55:23;;;;;;;9.30;2.10;;;;;;;11.07;91.14;100344.93;102317;1312;22578;-64
2022/01/01 00:57:54;;;;;;;10.50;2.60;;;;;;;11.08;91.04;100348.89;102357;1312;22663;-65
2022/01/01 01:00:25;;;;;;;12.00;3.00;;;;;;;11.07;91.27;100356.14;102287;1312;22709;-64
2022/01/01 01:02:56;;;;;;;8.60;2.00;;;;;;;11.06;91.12;100357.94;102520;1308;25297;-64
2022/01/01 01:05:27;;;;;;;10.40;2.70;;;;;;;11.05;91.24;100363.13;102374;1312;25374;-64
2022/01/01 01:07:58;;;;;;;9.20;2.20;;;;;;;11.05;91.25;100360.48;102516;1306;25364;-64
2022/01/01 01:10:29;;;;;;;8.20;1.90;;;;;;;11.05;91.35;100364.39;102206;1312;22567;-65
2022/01/01 01:13:00;;;;;;;11.20;2.50;;;;;;;11.05;91.60;100369.66;102461;1312;22609;-63
2022/01/01 01:15:32;;;;;;;10.60;2.70;;;;;;;11.05;91.79;100369.66;102356;1312;24455;-65
2022/01/01 01:18:05;;;;;;;11.50;2.80;;;;;;;11.04;91.72;100380.72;102519;1313;22596;-65
2022/01/01 01:20:37;;;;;;;10.90;2.20;;;;;;;11.04;91.96;100386.15;102538;1313;22649;-65
2022/01/01 01:23:09;;;;;;;11.60;2.70;;;;;;;11.04;91.83;100393.98;102457;1312;22553;-64
2022/01/01 01:25:41;;;;;;;8.90;2.30;;;;;;;11.03;91.87;100394.71;102319;1306;22686;-64
2022/01/01 01:28:14;;;;;;;10.10;2.20;;;;;;;11.02;91.91;100394.61;102477;1311;25311;-64
2022/01/01 01:30:46;;;;;;;7.70;2.00;;;;;;;11.03;92.02;100395.84;102444;1312;25305;-63
2022/01/01 01:33:17;;;;;;;8.20;2.10;;;;;;;11.03;91.98;100395.84;102504;1311;22641;-64
2022/01/01 01:35:48;;;;;;;8.50;2.20;;;;;;;11.04;92.17;100399.41;102648;1312;22614;-67
2022/01/01 01:38:20;;;;;;;12.00;2.50;;;;;;;11.04;92.01;100404.34;102570;1312;25267;-65
2022/01/01 01:40:51;;;;;;;9.30;2.50;;;;;;;11.04;92.16;100407.54;102702;1313;22570;-64
2022/01/01 01:43:22;;;;;;;13.70;2.70;;;;;;;11.04;92.20;100408.26;102593;1312;22580;-64
2022/01/01 01:45:53;;;;;;;8.10;2.10;;;;;;;11.03;92.17;100412.29;102641;1313;25822;-64
2022/01/01 01:48:24;;;;;;;6.60;1.80;;;;;;;11.04;92.40;100410.42;102580;1312;24232;-64
2022/01/01 01:50:56;;;;;;;7.10;1.60;;;;;;;11.03;92.47;100411.27;102565;1312;22632;-64
2022/01/01 01:53:28;;;;;;;8.50;2.20;;;;;;;11.02;92.52;100417.91;102611;1312;22566;-64
2022/01/01 01:56:01;;;;;;;8.50;1.90;;;;;;;11.02;92.65;100423.91;102781;1312;22606;-66
2022/01/01 01:58:32;;;;;;;7.30;1.80;;;;;;;11.02;92.67;100426.17;102811;1313;23817;-64
2022/01/01 02:01:24;;;;;;;9.40;1.90;;;;;;;11.01;92.59;100420.44;102748;1312;24209;-64
2022/01/01 02:03:57;;;;;;;7.50;2.20;;;;;;;11.00;92.68;100424.58;102704;1313;22646;-67
2022/01/01 02:06:28;;;;;;;8.60;2.10;;;;;;;11.00;92.70;100428.27;102740;1312;25425;-65
2022/01/01 02:08:59;;;;;;;10.50;2.80;;;;;;;10.99;92.73;100431.24;102677;1313;24202;-64
2022/01/01 02:11:30;;;;;;;10.30;2.00;;;;;;;10.98;92.82;100428.81;102797;1312;25846;-64
2022/01/01 02:14:13;;;;;;;8.30;2.30;;;;;;;10.97;92.90;100425.99;102720;1312;24141;-66
2022/01/01 02:19:49;;;;;;;10.40;2.00;;;;;;;10.97;92.71;100426.27;102634;1313;22670;-65
2022/01/01 02:22:20;;;;;;;11.40;2.70;;;;;;;10.96;92.75;100430.38;102792;1312;24215;-65
2022/01/01 02:24:51;;;;;;;10.50;2.90;;;;;;;10.96;92.82;100431.75;102668;1313;22644;-65
2022/01/01 02:27:22;;;;;;;8.80;2.40;;;;;;;10.96;92.73;100431.34;102619;1312;22653;-64
2022/01/01 02:29:53;;;;;;;6.90;2.30;;;;;;;10.96;92.81;100435.35;103003;1313;26476;-63
2022/01/01 02:32:25;;;;;;;11.60;3.30;;;;;;;10.96;92.96;100430.59;103120;1312;25230;-64
2022/01/01 02:34:56;;;;;;;10.60;2.20;;;;;;;10.97;92.75;100438.73;102793;1313;22534;-65
2022/01/01 02:37:27;;;;;;;8.60;2.60;;;;;;;10.96;92.65;100442.88;102737;1312;26464;-65
2022/01/01 02:39:58;;;;;;;13.00;3.30;;;;;;;10.96;92.68;100442.98;102745;1312;25286;-65
2022/01/01 02:42:31;;;;;;;9.20;2.70;;;;;;;10.96;92.81;100445.46;102649;1313;23034;-65
2022/01/01 02:45:07;;;;;;;12.90;3.60;;;;;;;10.96;92.71;100448.88;102703;1313;22609;-64
2022/01/01 02:47:38;;;;;;;13.20;3.40;;;;;;;10.96;92.88;100451.92;102603;1313;25368;-63
2022/01/01 02:50:11;;;;;;;12.10;2.80;;;;;;;10.96;92.87;100456.02;102674;1312;26487;-71
2022/01/01 02:52:42;;;;;;;8.90;3.10;;;;;;;10.95;92.97;100455.65;102723;1312;22676;-65
2022/01/01 02:55:14;;;;;;;12.30;3.70;;;;;;;10.94;93.11;100455.84;102606;1312;22587;-65
2022/01/01 02:57:45;;;;;;;10.30;2.90;;;;;;;10.93;93.20;100453.49;102666;1312;24678;-64
2022/01/01 03:00:18;;;;;;;12.80;3.50;;;;;;;10.92;93.18;100458.34;102642;1312;25368;-64
2022/01/01 03:02:49;;;;;;;9.70;2.30;;;;;;;10.92;93.29;100458.29;102690;1312;22566;-64
2022/01/01 03:05:20;;;;;;;11.60;2.70;;;;;;;10.91;93.20;100464.21;102595;1313;24293;-65
2022/01/01 03:07:51;;;;;;;11.90;3.20;;;;;;;10.90;93.29;100462.05;102699;1312;22604;-64
2022/01/01 03:10:22;;;;;;;9.30;2.90;;;;;;;10.90;93.57;100466.84;102636;1313;25275;-65
2022/01/01 03:12:53;;;;;;;11.50;3.70;;;;;;;10.89;93.53;100463.67;102714;1312;26560;-65
2022/01/01 03:15:24;;;;;;;12.10;3.20;;;;;;;10.90;93.49;100468.91;102599;1312;22604;-64
2022/01/01 03:17:56;;;;;;;8.40;2.60;;;;;;;10.90;93.62;100465.82;102608;1312;22607;-65
2022/01/01 03:20:27;;;;;;;13.20;3.40;;;;;;;10.90;93.75;100468.91;102694;1313;22601;-65
2022/01/01 03:22:58;;;;;;;9.90;2.80;;;;;;;10.91;93.70;100472.61;102617;1313;24262;-64
2022/01/01 03:25:29;;;;;;;10.60;2.30;;;;;;;10.91;93.68;100478.18;102561;1312;24727;-63
2022/01/01 03:28:00;;;;;;;8.70;2.40;;;;;;;10.92;93.82;100478.64;102615;1313;25545;-64
2022/01/01 03:30:30;;;;;;;11.30;2.90;;;;;;;10.90;93.78;100474.23;102648;1313;22602;-64
2022/01/01 03:33:01;;;;;;;8.90;2.90;;;;;;;10.90;93.98;100476.98;102614;1313;25373;-66
2022/01/01 03:35:32;;;;;;;8.70;2.90;;;;;;;10.89;94.05;100472.55;102627;1307;22795;-63
2022/01/01 03:38:03;;;;;;;9.20;3.20;;;;;;;10.89;93.85;100468.55;102698;1313;22707;-65
2022/01/01 03:40:35;;;;;;;8.50;2.60;;;;;;;10.89;93.93;100467.36;102642;1313;25365;-64
2022/01/01 03:43:06;;;;;;;10.70;3.40;;;;;;;10.89;94.09;100469.66;102677;1313;25473;-65
2022/01/01 03:45:37;;;;;;;11.00;3.30;;;;;;;10.90;94.13;100469.88;102684;1313;22610;-64
2022/01/01 03:48:09;;;;;;;8.90;2.60;;;;;;;10.89;94.02;100477.16;102804;1313;22596;-65
2022/01/01 03:50:40;;;;;;;7.60;2.60;;;;;;;10.88;94.29;100482.23;102600;1311;24790;-65
2022/01/01 03:53:12;;;;;;;10.70;3.30;;;;;;;10.88;94.33;100481.93;102642;1312;24741;-65
2022/01/01 03:55:43;;;;;;;8.70;2.40;;;;;;;10.88;94.32;100481.77;102611;1307;25398;-64
2022/01/01 03:58:14;;;;;;;7.10;2.30;;;;;;;10.88;94.50;100481.41;102717;1313;22587;-64
2022/01/01 04:00:46;;;;;;;9.90;2.50;;;;;;;10.88;94.49;100479.39;102671;1312;22594;-64
2022/01/01 04:03:17;;;;;;;9.00;2.10;;;;;;;10.89;94.52;100481.67;102650;1313;23782;-64
2022/01/01 04:05:48;;;;;;;7.00;1.80;;;;;;;10.89;94.50;100487.17;102720;1313;22570;-65
2022/01/01 04:08:20;;;;;;;9.10;2.20;;;;;;;10.89;94.61;100487.23;102633;1306;22581;-65
2022/01/01 04:10:52;;;;;;;8.20;2.30;;;;;;;10.91;94.39;100492.73;102738;1313;23045;-66
2022/01/01 04:13:24;;;;;;;7.10;2.30;;;;;;;10.92;94.62;100494.34;102692;1313;25735;-65
2022/01/01 04:15:55;;;;;;;6.80;1.90;;;;;;;10.95;94.47;100496.84;102704;1312;22711;-65
2022/01/01 04:18:37;;;;;;;7.20;2.30;;;;;;;10.97;94.29;100504.39;102753;1312;25338;-64
2022/01/01 04:21:10;;;;;;;8.20;2.40;;;;;;;10.99;94.27;100503.73;102666;1313;25211;-66
2022/01/01 04:23:43;;;;;;;6.70;1.80;;;;;;;11.00;94.10;100511.08;102722;1313;25222;-64
2022/01/01 04:26:13;;;;;;;9.10;1.90;;;;;;;11.02;94.13;100513.09;102773;1313;22650;-63
2022/01/01 04:28:45;;;;;;;5.30;1.60;;;;;;;11.04;93.83;100516.89;102700;1313;24229;-65
2022/01/01 04:31:16;;;;;;;6.30;1.60;;;;;;;11.06;93.96;100515.90;102720;1312;22595;-64
2022/01/01 04:33:47;;;;;;;10.90;2.30;;;;;;;11.08;93.92;100514.55;102699;1313;25500;-65
2022/01/01 04:36:18;;;;;;;8.60;1.90;;;;;;;11.08;93.76;100518.05;102726;1305;22616;-65
2022/01/01 04:38:49;;;;;;;9.70;3.10;;;;;;;11.08;93.76;100524.27;102654;1313;25461;-65
2022/01/01 04:41:20;;;;;;;9.30;2.00;;;;;;;11.06;94.07;100525.64;102572;1313;22608;-65
2022/01/01 04:43:52;;;;;;;8.90;2.30;;;;;;;11.04;94.07;100530.31;102674;1312;25256;-64
2022/01/01 04:46:23;;;;;;;6.90;2.00;;;;;;;11.02;93.98;100532.40;102308;1310;23201;-66
2022/01/01 04:48:54;;;;;;;9.10;2.70;;;;;;;11.00;94.11;100537.19;102594;1313;26640;-64
2022/01/01 04:51:25;;;;;;;6.30;1.90;;;;;;;10.99;94.43;100544.21;102607;1313;26532;-64
2022/01/01 04:54:00;;;;;;;8.00;2.20;;;;;;;10.96;94.47;100547.77;102599;1306;22602;-64
2022/01/01 04:56:33;;;;;;;7.30;2.30;;;;;;;10.95;94.56;100556.27;102625;1309;23725;-64
2022/01/01 04:59:04;;;;;;;11.80;2.90;;;;;;;10.95;94.60;100556.61;102762;1312;25325;-65
2022/01/01 05:01:38;;;;;;;10.20;2.20;;;;;;;10.94;94.69;100558.27;102686;1313;24271;-64
2022/01/01 05:04:09;;;;;;;8.00;2.10;;;;;;;10.94;94.61;100563.61;102716;1302;24256;-64
2022/01/01 05:06:42;;;;;;;12.50;2.60;;;;;;;10.94;94.40;100556.59;102728;1312;23018;-66
2022/01/01 05:09:13;;;;;;;10.10;2.30;;;;;;;10.96;94.57;100563.05;103127;1312;22592;-64
2022/01/01 05:11:44;;;;;;;13.00;2.50;;;;;;;10.96;94.30;100560.05;103311;1313;24292;-64
2022/01/01 05:14:15;;;;;;;7.20;2.00;;;;;;;10.99;94.55;100562.55;102768;1313;25291;-64
2022/01/01 05:16:46;;;;;;;9.80;2.00;;;;;;;11.01;94.40;100558.22;102712;1313;25884;-70
2022/01/01 05:19:18;;;;;;;8.00;1.90;;;;;;;11.03;94.25;100561.16;102677;1313;25007;-64
2022/01/01 05:21:50;;;;;;;9.30;1.80;;;;;;;11.04;94.21;100559.11;102659;1313;22670;-63
2022/01/01 05:24:21;;;;;;;6.70;1.50;;;;;;;11.06;94.09;100565.34;102603;1313;24248;-64
2022/01/01 05:26:52;;;;;;;5.50;1.60;;;;;;;11.06;94.32;100569.73;102629;1312;26548;-64
2022/01/01 05:29:23;;;;;;;5.20;1.50;;;;;;;11.05;94.27;100568.58;102606;1313;25255;-63
2022/01/01 05:31:54;;;;;;;5.80;1.60;;;;;;;11.03;94.50;100570.08;102685;1313;25419;-64
2022/01/01 05:34:25;;;;;;;7.40;1.90;;;;;;;11.02;94.26;100572.38;102681;1312;22615;-65
2022/01/01 05:36:56;;;;;;;6.20;1.80;;;;;;;11.02;94.48;100577.59;102684;1313;25451;-65
2022/01/01 05:39:28;;;;;;;6.60;1.70;;;;;;;11.01;94.31;100584.33;102704;1313;22579;-65
2022/01/01 05:41:59;;;;;;;8.80;1.80;;;;;;;11.00;94.55;100581.42;102887;1312;24241;-65
2022/01/01 05:44:30;;;;;;;7.40;1.90;;;;;;;11.00;94.53;100580.24;102680;1313;23020;-64
2022/01/01 05:47:00;;;;;;;6.70;1.80;;;;;;;10.99;94.65;100583.68;102723;1313;26514;-63
2022/01/01 05:49:31;;;;;;;9.90;2.00;;;;;;;10.99;94.49;100584.73;102654;1313;24253;-64
2022/01/01 05:52:03;;;;;;;7.70;1.90;;;;;;;10.99;94.74;100583.88;102678;1313;22620;-65
2022/01/01 05:54:33;;;;;;;6.10;1.80;;;;;;;10.99;94.64;100592.16;102826;1312;24235;-64
2022/01/01 05:57:06;;;;;;;9.50;2.20;;;;;;;10.99;94.65;100593.59;102714;1313;22815;-65
2022/01/01 05:59:40;;;;;;;10.00;2.20;;;;;;;11.00;94.54;100596.11;102835;1312;25254;-66
2022/01/01 06:02:11;;;;;;;5.80;1.50;;;;;;;11.01;94.64;100597.59;102706;1313;23783;-65
2022/01/01 06:04:41;;;;;;;7.90;2.20;;;;;;;11.01;94.44;100600.03;102712;1313;23658;-65
2022/01/01 06:07:12;;;;;;;11.20;3.00;;;;;;;11.02;94.59;100605.90;102639;1313;23894;-64
2022/01/01 06:09:45;;;;;;;8.30;2.30;;;;;;;11.04;94.59;100614.36;102628;1313;24236;-64
2022/01/01 06:12:17;;;;;;;10.20;2.40;;;;;;;11.03;94.64;100609.83;102709;1313;24211;-63
2022/01/01 06:14:47;;;;;;;11.00;2.40;;;;;;;11.02;94.55;100614.28;102682;1309;22835;-64
2022/01/01 06:17:18;;;;;;;10.80;2.80;;;;;;;11.03;94.74;100619.77;102576;1312;25496;-64
2022/01/01 06:19:49;;;;;;;8.50;2.20;;;;;;;11.03;94.71;100624.52;102651;1311;22596;-64
2022/01/01 06:22:20;;;;;;;8.60;2.40;;;;;;;11.02;94.58;100628.02;102417;1313;22580;-64
2022/01/01 06:24:51;;;;;;;10.60;2.60;;;;;;;11.03;94.64;100633.23;102416;1313;22663;-64
2022/01/01 06:27:21;;;;;;;8.90;2.30;;;;;;;11.02;94.53;100631.77;102390;1311;22581;-65
2022/01/01 06:29:52;;;;;;;9.80;2.60;;;;;;;11.02;94.68;100633.38;102506;1312;22566;-65
2022/01/01 06:32:23;;;;;;;10.70;2.90;;;;;;;11.01;94.68;100637.71;102481;1313;22621;-63
2022/01/01 06:34:54;;;;;;;10.90;2.60;;;;;;;11.00;94.68;100638.62;102541;1313;22605;-64
2022/01/01 06:37:24;;;;;;;13.40;3.10;;;;;;;11.00;94.49;100642.88;102404;1312;22639;-64
2022/01/01 06:39:55;;;;;;;11.00;2.70;;;;;;;11.00;94.62;100642.98;102482;1313;24319;-64
2022/01/01 06:42:26;;;;;;;14.10;3.00;;;;;;;10.99;94.63;100644.54;102435;1312;22587;-65
2022/01/01 06:44:57;;;;;;;7.20;2.20;;;;;;;10.97;94.60;100647.34;102372;1313;22624;-63
2022/01/01 06:47:28;;;;;;;7.60;2.40;;;;;;;10.97;94.60;100655.90;102476;1306;22721;-64
2022/01/01 06:49:58;;;;;;;14.50;2.70;;;;;;;10.96;94.52;100654.16;102507;1312;22574;-68
2022/01/01 06:52:29;;;;;;;10.30;2.90;;;;;;;10.96;94.54;100654.67;102533;1313;23948;-64
2022/01/01 06:55:01;;;;;;;8.10;2.30;;;;;;;10.96;94.56;100661.68;102399;1312;26515;-64
2022/01/01 06:57:32;;;;;;;8.40;2.30;;;;;;;10.96;94.47;100660.15;102420;1312;25043;-64
2022/01/01 07:00:04;;;;;;;12.80;3.20;;;;;;;10.95;94.66;100664.91;102383;1311;22587;-64
2022/01/01 07:02:40;;;;;;;12.90;3.50;;;;;;;10.93;94.81;100666.75;102531;1313;22580;-64
2022/01/01 07:05:13;;;;;;;12.80;4.20;;;;;;;10.92;94.84;100674.23;102492;1313;22651;-64
2022/01/01 07:07:45;;;;;;;9.20;2.40;;;;;;;10.92;94.91;100669.14;102584;1313;22589;-63
2022/01/01 07:10:16;;;;;;;9.20;3.00;;;;;;;10.91;95.04;100671.10;102509;1313;23105;-65
2022/01/01 07:12:48;;;;;;;12.40;3.60;;;;;;;10.90;94.92;100675.95;102528;1311;26511;-64
2022/01/01 07:15:19;;;;;;;11.20;2.90;;;;;;;10.89;95.05;100674.95;102498;1312;22794;-63
2022/01/01 07:17:49;;;;;;;13.20;3.60;;;;;;;10.87;95.01;100678.54;102485;1312;22729;-64
2022/01/01 07:20:20;;;;;;;11.80;3.30;;;;;;;10.86;94.90;100683.13;102305;1308;24340;-63
2022/01/01 07:22:51;;;;;;;12.80;4.10;;;;;;;10.86;94.98;100683.89;102512;1313;25255;-64
2022/01/01 07:25:22;;;;;;;11.80;4.20;;;;;;;10.86;95.08;100681.80;102479;1313;25713;-65
2022/01/01 07:27:54;;;;;;;14.20;4.50;;;;;;;10.85;95.06;100681.19;102472;1312;24253;-64
2022/01/01 07:30:25;;;;;;;13.30;3.80;;;;;;;10.85;94.80;100683.09;102510;1312;25572;-64
2022/01/01 07:32:56;;;;;;;12.60;4.40;;;;;;;10.86;94.88;100683.54;102427;1313;22666;-64
2022/01/01 07:35:27;;;;;;;13.30;3.00;;;;;;;10.87;94.86;100680.36;102556;1312;25622;-64
2022/01/01 07:37:58;;;;;;;12.00;3.80;;;;;;;10.88;94.61;100684.25;102511;1313;22580;-65
2022/01/01 07:40:30;;;;;;;13.60;3.70;;;;;;;10.89;94.72;100685.14;102474;1312;22623;-65
2022/01/01 07:43:02;;;;;;;10.30;2.50;;;;;;;10.91;94.64;100692.17;102470;1312;23742;-65
2022/01/01 07:45:32;;;;;;;11.10;2.20;;;;;;;10.92;94.53;100695.55;102525;1312;24688;-65
2022/01/01 07:48:04;;;;;;;13.70;3.20;;;;;;;10.93;94.50;100697.64;102685;1313;22577;-65
2022/01/01 07:50:35;;;;;;;13.50;3.00;;;;;;;10.94;94.32;100702.13;103476;1311;23899;-65
2022/01/01 07:53:07;;;;;;;12.60;3.30;;;;;;;10.96;94.18;100701.90;102825;1312;22616;-65
2022/01/01 07:55:38;;;;;;;12.90;3.90;;;;;;;10.97;94.21;100708.54;102579;1313;24228;-70
2022/01/01 07:58:09;;;;;;;14.10;3.70;;;;;;;10.98;94.29;100707.39;102574;1313;25377;-66
2022/01/01 08:00:40;;;;;;;15.30;4.30;;;;;;;10.98;94.28;100709.48;102409;1310;22594;-64
2022/01/01 08:03:13;;;;;;;15.40;4.60;;;;;;;10.98;94.17;100713.39;102411;1312;22602;-64
2022/01/01 08:05:44;;;;;;;18.10;4.30;;;;;;;10.98;94.11;100711.46;102627;1312;22680;-64
2022/01/01 08:08:15;;;;;;;18.50;5.50;;;;;;;10.98;94.26;100706.38;102590;1313;25406;-64
2022/01/01 08:10:46;;;;;;;14.50;4.60;;;;;;;10.97;94.21;100717.16;102535;1313;25370;-65
2022/01/01 08:13:23;;;;;;;19.30;6.00;;;;;;;10.97;94.16;100721.33;102559;1313;22581;-65
2022/01/01 08:15:56;;;;;;;14.10;4.10;;;;;;;10.97;94.13;100726.02;102481;1313;22693;-66
2022/01/01 08:18:28;;;;;;;16.20;5.30;;;;;;;10.97;94.11;100728.25;102502;1313;26318;-65
2022/01/01 08:20:59;;;;;;;15.60;4.70;;;;;;;10.97;94.01;100729.69;102468;1313;22657;-67
2022/01/01 08:23:30;;;;;;;15.90;5.60;;;;;;;10.98;94.03;100732.03;102543;1313;22572;-65
2022/01/01 08:26:01;;;;;;;17.30;5.30;;;;;;;10.99;93.91;100731.43;102593;1313;22576;-65
2022/01/01 08:28:32;;;;;;;17.60;4.90;;;;;;;11.00;93.93;100736.04;102546;1312;22782;-66
2022/01/01 08:31:04;;;;;;;13.70;4.80;;;;;;;11.01;93.98;100734.16;102529;1312;24218;-66
2022/01/01 08:33:35;;;;;;;14.00;4.50;;;;;;;11.00;93.94;100731.38;102508;1312;22695;-65
2022/01/01 08:36:08;;;;;;;13.00;3.90;;;;;;;11.01;93.96;100737.64;102371;1312;22655;-66
2022/01/01 08:38:39;;;;;;;15.80;4.70;;;;;;;11.01;93.72;100741.64;103964;1312;24229;-65
2022/01/01 08:41:10;;;;;;;14.00;4.50;;;;;;;11.01;93.90;100743.07;102459;1312;22574;-66
2022/01/01 08:43:41;;;;;;;13.30;4.70;;;;;;;11.02;93.78;100738.67;102474;1313;23041;-70
2022/01/01 08:46:12;;;;;;;13.90;3.40;;;;;;;11.02;93.76;100745.59;102509;1309;25341;-67
2022/01/01 08:48:44;;;;;;;11.80;3.10;;;;;;;11.04;93.72;100744.16;102226;1312;22607;-65
2022/01/01 08:51:17;;;;;;;19.40;4.10;;;;;;;11.05;93.62;100746.23;102703;1312;25334;-66
2022/01/01 08:53:48;;;;;;;15.00;3.40;;;;;;;11.08;93.73;100752.75;102869;1307;22599;-66
2022/01/01 08:56:20;;;;;;;11.30;3.30;;;;;;;11.10;93.61;100751.63;102643;1312;22702;-66
2022/01/01 08:58:51;;;;;;;13.80;3.80;;;;;;;11.12;93.44;100751.67;102782;1312;25403;-66
2022/01/01 09:01:23;;;;;;;16.30;4.30;;;;;;;11.12;93.52;100756.67;102519;1312;22587;-66
2022/01/01 09:03:54;;;;;;;11.70;2.50;;;;;;;11.14;93.51;100759.63;102622;1311;25911;-65
2022/01/01 09:06:26;;;;;;;14.70;3.40;;;;;;;11.16;93.65;100763.77;102501;1312;22701;-66
2022/01/01 09:08:59;;;;;;;13.40;4.00;;;;;;;11.18;93.68;100765.14;102742;1312;23085;-67
2022/01/01 09:11:30;;;;;;;14.40;4.20;;;;;;;11.18;93.53;100771.01;102590;1313;23180;-66
2022/01/01 09:14:01;;;;;;;13.00;3.40;;;;;;;11.20;93.73;100778.70;102470;1312;22755;-68
2022/01/01 09:16:32;;;;;;;17.30;4.70;;;;;;;11.21;93.58;100787.32;102579;1312;25360;-66
2022/01/01 09:19:05;;;;;;;16.20;3.90;;;;;;;11.23;93.53;100787.80;102443;1312;24572;-65
2022/01/01 09:21:37;;;;;;;18.70;4.50;;;;;;;11.25;93.54;100790.59;102580;1312;23542;-65
2022/01/01 09:24:10;;;;;;;23.10;10.00;;;;;;;11.27;93.50;100777.06;102589;1312;22615;-65
2022/01/01 09:26:44;;;;;;;13.70;4.70;;;;;;;11.30;93.52;100778.10;102600;1313;24191;-65
2022/01/01 09:29:15;;;;;;;16.90;5.40;;;;;;;11.33;93.50;100778.84;102534;1312;22712;-65
2022/01/01 09:31:46;;;;;;;17.70;4.80;;;;;;;11.34;93.39;100780.94;102519;1312;22611;-66
2022/01/01 09:34:17;;;;;;;18.10;5.10;;;;;;;11.34;93.31;100784.55;102577;1312;22676;-66
2022/01/01 09:36:50;;;;;;;15.80;4.50;;;;;;;11.34;93.04;100790.08;102576;1312;24241;-65
2022/01/01 09:39:21;;;;;;;20.50;5.60;;;;;;;11.32;93.00;100799.40;102597;1309;22591;-67
2022/01/01 09:41:52;;;;;;;14.60;4.70;;;;;;;11.31;92.94;100807.23;102575;1310;22711;-65
2022/01/01 09:44:24;;;;;;;14.20;3.50;;;;;;;11.28;92.93;100808.55;102539;1312;22566;-65
2022/01/01 09:46:55;;;;;;;13.50;4.00;;;;;;;11.26;92.91;100810.42;102601;1313;25406;-65
2022/01/01 09:49:26;;;;;;;12.60;3.00;;;;;;;11.21;93.12;100808.55;102544;1312;22577;-66
2022/01/01 09:51:57;;;;;;;9.60;2.50;;;;;;;11.17;93.43;100821.38;102548;1312;22597;-65
2022/01/01 09:54:30;;;;;;;11.00;2.60;;;;;;;11.11;93.58;100819.09;102381;1312;22966;-65
2022/01/01 09:57:03;;;;;;;12.00;2.30;;;;;;;11.05;93.60;100815.68;102367;1312;24221;-66
2022/01/01 09:59:34;;;;;;;8.70;2.40;;;;;;;11.01;93.97;100814.59;102670;1312;22626;-65
2022/01/01 10:02:06;;;;;;;9.80;2.30;;;;;;;10.98;94.12;100817.05;102653;1313;25591;-65
2022/01/01 10:04:50;;;;;;;10.60;2.40;;;;;;;10.96;94.16;100823.24;102483;1312;24221;-67
2022/01/01 10:07:29;;;;;;;9.80;2.60;;;;;;;10.94;94.32;100819.09;102564;1313;25460;-65
2022/01/01 10:10:20;;;;;;;10.90;2.80;;;;;;;10.93;94.37;100817.44;102761;1312;26035;-65
2022/01/01 10:12:49;;;;;;;;;;;;;;;10.91;94.34;100823.19;103128;1312;26022;-67
2022/01/01 10:15:21;;;;;;;10.10;2.90;;;;;;;10.90;94.54;100822.84;102569;1312;22779;-65
2022/01/01 10:17:53;;;;;;;12.10;4.00;;;;;;;10.90;94.73;100820.70;103174;1312;24229;-65
2022/01/01 10:20:25;;;;;;;11.20;3.60;;;;;;;10.90;94.90;100827.10;102375;1313;22564;-66
2022/01/01 10:23:09;;;;;;;13.50;4.00;;;;;;;10.89;94.96;100831.90;102457;1313;22682;-65
2022/01/01 10:28:29;;;;;;;15.50;5.00;;;;;;;10.88;95.03;100833.00;102646;1312;22721;-67
2022/01/01 10:31:00;;;;;;;16.70;4.90;;;;;;;10.88;95.16;100844.83;102676;1312;22616;-71
2022/01/01 10:33:35;;;;;;;14.80;3.90;;;;;;;10.84;95.37;100846.28;103122;1312;25797;-68
2022/01/01 10:36:10;;;;;;;13.90;3.00;;;;;;;10.79;95.36;100853.26;102387;1312;22583;-68
2022/01/01 10:38:41;;;;;;;6.30;1.90;;;;;;;10.75;95.63;100848.98;102590;1309;25768;-67
2022/01/01 10:41:15;;;;;;;7.90;1.40;;;;;;;10.73;95.97;100857.40;102273;1311;25412;-66
2022/01/01 10:43:48;;;;;;;6.00;1.20;;;;;;;10.69;95.98;100851.05;102503;1313;22594;-66
2022/01/01 10:46:20;;;;;;;6.70;1.60;;;;;;;10.68;96.04;100856.09;102592;1313;22548;-67
2022/01/01 10:49:09;;;;;;;6.30;1.80;;;;;;;10.67;95.85;100864.83;102427;1312;22600;-67
2022/01/01 10:51:41;;;;;;;8.70;2.50;;;;;;;10.66;95.81;100855.73;102556;1312;24311;-65
2022/01/01 10:54:12;;;;;;;11.50;2.70;;;;;;;10.68;95.67;100849.95;102544;1312;22601;-65
2022/01/01 10:56:44;;;;;;;14.00;3.60;;;;;;;10.69;95.90;100852.59;102384;1312;22584;-65
2022/01/01 10:59:16;;;;;;;13.40;3.70;;;;;;;10.71;95.54;100852.89;102443;1313;24703;-64
2022/01/01 11:01:49;;;;;;;14.00;4.10;;;;;;;10.73;95.45;100849.39;102339;1313;22715;-64
2022/01/01 11:04:20;;;;;;;16.10;3.90;;;;;;;10.75;95.50;100848.27;102258;1312;22664;-63
2022/01/01 11:06:52;;;;;;;12.90;3.40;;;;;;;10.77;95.41;100846.98;102329;1312;24361;-64
2022/01/01 11:09:24;;;;;;;14.60;3.60;;;;;;;10.78;95.35;100845.71;102412;1312;26221;-64
2022/01/01 11:12:02;;;;;;;9.30;2.70;;;;;;;10.79;95.34;100844.08;102336;1312;25354;-65
2022/01/01 11:14:35;;;;;;;12.20;2.70;;;;;;;10.80;95.19;100847.15;102537;1312;22683;-64
2022/01/01 11:17:07;;;;;;;7.50;1.80;;;;;;;10.80;95.12;100846.38;102449;1313;25212;-64
2022/01/01 11:19:39;;;;;;;9.40;1.70;;;;;;;10.79;95.16;100847.13;102323;1313;22596;-63
2022/01/01 11:22:12;;;;;;;9.90;1.60;;;;;;;10.79;95.16;100851.37;102340;1312;22574;-63
2022/01/01 11:24:43;;;;;;;8.80;2.00;;;;;;;10.79;95.03;100850.26;102271;1310;25335;-64
2022/01/01 11:27:16;;;;;;;10.50;2.30;;;;;;;10.81;95.21;100852.48;102251;1312;22570;-64
2022/01/01 11:29:50;;;;;;;14.50;3.70;;;;;;;10.82;95.34;100848.42;101660;1303;33666;-64
2022/01/01 11:32:23;;;;;;;13.50;4.40;;;;;;;10.83;95.40;100848.45;102320;1312;22609;-65
2022/01/01 11:34:56;;;;;;;15.80;4.80;;;;;;;10.85;95.25;100844.95;102077;1314;22586;-64
2022/01/01 11:37:44;;;;;;;13.00;3.70;;;;;;;10.88;95.23;100840.45;102503;1313;22975;-68
2022/01/01 11:40:18;;;;;;;13.70;4.70;;;;;;;10.90;95.43;100843.86;101761;1312;34975;-64